createdAt,value
2018-07-22T00:00:42.420Z,85.75
2018-07-22T00:03:08.473Z,87.82
2018-07-22T00:05:34.495Z,87.18
2018-07-22T00:08:00.520Z,86.12
2018-07-22T00:10:26.532Z,86.00
2018-07-22T00:12:52.622Z,86.95
2018-07-22T00:15:18.643Z,85.88
2018-07-22T00:17:44.705Z,85.81
2018-07-22T00:20:10.755Z,88.58
2018-07-22T00:22:36.778Z,87.49
2018-07-22T00:25:02.810Z,87.36
2018-07-22T00:27:28.837Z,85.74
2018-07-22T00:29:54.871Z,86.01
2018-07-22T00:32:20.871Z,86.24
2018-07-22T00:34:46.889Z,86.82
2018-07-22T00:37:12.902Z,87.47
2018-07-22T00:39:38.917Z,85.98
2018-07-22T00:42:04.950Z,87.31
2018-07-22T00:44:30.987Z,86.78
2018-07-22T00:46:57.025Z,87.43
2018-07-22T00:49:23.117Z,86.77
2018-07-22T00:51:49.154Z,88.22
2018-07-22T00:54:15.235Z,87.27
2018-07-22T01:21:58.379Z,84.58
2018-07-22T01:24:24.412Z,86.67
2018-07-22T01:26:50.805Z,85.51
2018-07-22T01:29:16.866Z,84.77
2018-07-22T01:31:42.935Z,86.34
2018-07-22T01:34:08.970Z,87.50
2018-07-22T01:36:34.973Z,85.08
2018-07-22T01:39:01.289Z,87.31
2018-07-22T01:41:27.314Z,86.62
2018-07-22T01:43:53.343Z,87.41
2018-07-22T01:46:19.366Z,86.60
2018-07-22T01:48:45.719Z,86.56
2018-07-22T01:51:11.760Z,86.31
2018-07-22T01:53:37.799Z,86.54
2018-07-22T01:56:03.793Z,87.07
2018-07-22T01:58:29.837Z,86.50
2018-07-22T02:00:55.852Z,86.84
2018-07-22T02:03:22.274Z,87.40
2018-07-22T02:15:54.976Z,86.36
2018-07-22T02:18:21.019Z,87.91
2018-07-22T02:20:47.108Z,86.42
2018-07-22T02:23:13.094Z,86.19
2018-07-22T02:25:39.139Z,88.32
2018-07-22T02:28:05.159Z,87.01
2018-07-22T02:30:31.431Z,86.39
2018-07-22T02:32:57.463Z,86.06
2018-07-22T02:50:37.469Z,87.07
2018-07-22T02:53:03.505Z,88.44
2018-07-22T02:55:29.505Z,88.17
2018-07-22T02:57:55.882Z,87.66
2018-07-22T03:00:21.912Z,88.12
2018-07-22T03:02:47.908Z,87.02
2018-07-22T03:05:14.244Z,88.73
2018-07-22T03:07:40.345Z,88.31
2018-07-22T03:10:06.756Z,87.79
2018-07-22T03:12:32.794Z,87.59
2018-07-22T03:14:58.845Z,89.05
2018-07-22T03:17:24.937Z,88.63
2018-07-22T03:19:50.953Z,88.83
2018-07-22T03:22:16.948Z,88.39
2018-07-22T03:24:43.007Z,88.13
2018-07-22T03:27:09.016Z,88.56
2018-07-22T03:29:35.396Z,88.58
2018-07-22T03:32:01.461Z,89.08
2018-07-22T03:34:27.758Z,88.09
2018-07-22T03:36:53.830Z,87.57
2018-07-22T03:39:19.863Z,89.30
2018-07-22T03:41:45.952Z,88.27
2018-07-22T03:44:12.248Z,87.76
2018-07-22T03:46:38.298Z,87.85
2018-07-22T03:49:04.597Z,87.80
2018-07-22T03:51:30.932Z,86.88
2018-07-22T03:53:56.977Z,89.00
2018-07-22T03:56:23.302Z,88.33
2018-07-22T03:58:49.349Z,87.72
2018-07-22T04:01:15.383Z,86.96
2018-07-22T04:03:41.462Z,87.80
2018-07-22T04:06:07.804Z,88.04
2018-07-22T04:08:33.886Z,86.49
2018-07-22T04:10:59.927Z,87.00
2018-07-22T04:13:26.271Z,87.35
2018-07-22T04:15:52.316Z,88.05
2018-07-22T04:18:18.411Z,87.06
2018-07-22T04:20:44.534Z,87.03
2018-07-22T04:23:10.568Z,87.17
2018-07-22T04:25:36.578Z,87.05
2018-07-22T04:28:02.630Z,87.25
2018-07-22T04:30:28.708Z,86.31
2018-07-22T04:32:54.756Z,86.98
2018-07-22T04:35:20.802Z,86.18
2018-07-22T04:37:46.881Z,87.22
2018-07-22T04:40:12.958Z,85.77
2018-07-22T04:42:39.271Z,85.97
2018-07-22T04:45:05.347Z,87.43
2018-07-22T04:47:31.341Z,86.90
2018-07-22T04:49:57.372Z,86.22
2018-07-22T04:52:23.407Z,85.48
2018-07-22T04:54:49.456Z,85.70
2018-07-22T04:57:15.852Z,85.44
2018-07-22T04:59:41.945Z,85.37
2018-07-22T05:02:08.202Z,85.40
2018-07-22T05:04:34.242Z,84.80
2018-07-22T05:07:00.524Z,84.28
2018-07-22T05:09:26.551Z,85.62
2018-07-22T05:11:52.578Z,83.99
2018-07-22T05:14:18.645Z,83.78
2018-07-22T05:21:49.783Z,84.82
2018-07-22T05:24:15.787Z,84.34
2018-07-22T05:26:42.131Z,83.88
2018-07-22T05:29:08.275Z,84.04
2018-07-22T05:31:34.360Z,85.00
2018-07-22T05:34:00.448Z,83.70
2018-07-22T05:36:26.468Z,83.51
2018-07-22T05:38:52.563Z,83.03
2018-07-22T05:41:18.696Z,83.09
2018-07-22T05:43:44.770Z,82.90
2018-07-22T05:46:11.177Z,83.82
2018-07-22T05:48:37.174Z,83.11
2018-07-22T05:51:03.220Z,82.03
2018-07-22T05:53:29.263Z,82.65
2018-07-22T05:55:55.535Z,81.31
2018-07-22T05:58:21.560Z,80.87
2018-07-22T06:00:47.579Z,82.83
2018-07-22T06:03:13.662Z,80.74
2018-07-22T06:05:39.668Z,79.90
2018-07-22T06:08:05.714Z,80.29
2018-07-22T06:10:31.843Z,80.08
2018-07-22T06:12:57.937Z,80.05
2018-07-22T06:15:23.963Z,79.95
2018-07-22T06:17:50.051Z,80.09
2018-07-22T06:20:16.062Z,78.19
2018-07-22T06:22:42.391Z,78.60
2018-07-22T06:25:08.723Z,77.59
2018-07-22T06:27:34.725Z,78.21
2018-07-22T06:30:00.758Z,77.27
2018-07-22T06:32:26.765Z,77.29
2018-07-22T06:34:52.854Z,78.26
2018-07-22T06:37:18.907Z,77.13
2018-07-22T06:39:44.984Z,76.29
2018-07-22T06:42:11.008Z,75.50
2018-07-22T06:44:37.034Z,75.43
2018-07-22T06:47:03.074Z,74.33
2018-07-22T06:49:29.081Z,77.42
2018-07-22T06:51:55.116Z,75.72
2018-07-22T06:54:21.182Z,76.13
2018-07-22T06:56:47.244Z,76.92
2018-07-22T06:59:13.655Z,75.43
2018-07-22T07:01:39.739Z,73.59
2018-07-22T07:04:05.791Z,72.37
2018-07-22T07:06:31.796Z,73.77
2018-07-22T07:08:57.830Z,73.38
2018-07-22T07:11:23.871Z,74.62
2018-07-22T07:13:49.930Z,71.92
2018-07-22T07:16:15.963Z,70.76
2018-07-22T07:18:41.972Z,71.78
2018-07-22T07:21:08.012Z,70.82
2018-07-22T07:23:34.286Z,70.59
2018-07-22T07:26:00.325Z,69.13
2018-07-22T07:28:26.381Z,69.58
2018-07-22T07:30:52.454Z,69.74
2018-07-22T07:33:18.707Z,68.53
2018-07-22T07:35:44.707Z,69.43
2018-07-22T07:38:10.743Z,70.25
2018-07-22T07:40:36.790Z,70.04
2018-07-22T07:43:02.832Z,67.96
2018-07-22T07:45:28.865Z,67.68
2018-07-22T07:50:20.768Z,66.12
2018-07-22T07:52:46.795Z,65.84
2018-07-22T07:55:13.241Z,65.85
2018-07-22T07:57:39.675Z,66.52
2018-07-22T08:00:05.960Z,65.91
2018-07-22T08:02:32.291Z,64.37
2018-07-22T08:04:58.336Z,63.65
2018-07-22T08:07:24.369Z,65.49
2018-07-22T08:09:50.378Z,65.32
2018-07-22T08:12:16.398Z,62.39
2018-07-22T08:14:42.456Z,62.69
2018-07-22T08:17:08.517Z,62.24
2018-07-22T08:19:34.592Z,63.00
2018-07-22T08:22:00.930Z,61.45
2018-07-22T08:24:26.954Z,62.53
2018-07-22T08:26:52.973Z,60.28
2018-07-22T08:29:18.998Z,60.34
2018-07-22T08:31:45.000Z,59.01
2018-07-22T08:34:11.027Z,59.47
2018-07-22T08:36:37.076Z,58.68
2018-07-22T08:39:03.369Z,58.14
2018-07-22T08:41:29.819Z,57.61
2018-07-22T08:43:55.852Z,55.89
2018-07-22T08:46:22.254Z,54.79
2018-07-22T08:48:48.278Z,55.77
2018-07-22T08:51:14.336Z,53.92
2018-07-22T08:53:40.626Z,55.93
2018-07-22T08:56:06.661Z,53.84
2018-07-22T08:58:32.699Z,51.84
2018-07-22T09:00:58.692Z,52.41
2018-07-22T09:03:24.715Z,51.80
2018-07-22T09:05:51.079Z,51.80
2018-07-22T09:08:17.151Z,51.84
2018-07-22T09:10:43.196Z,51.03
2018-07-22T09:13:09.264Z,50.98
2018-07-22T09:15:35.299Z,51.43
2018-07-22T09:18:01.762Z,51.06
2018-07-22T09:20:27.736Z,49.66
2018-07-22T09:22:53.779Z,51.42
2018-07-22T09:25:19.805Z,52.12
2018-07-22T09:27:45.822Z,48.52
2018-07-22T09:30:11.841Z,49.59
2018-07-22T09:32:37.838Z,49.02
2018-07-22T09:35:03.892Z,48.23
2018-07-22T09:37:29.914Z,48.34
2018-07-22T09:39:55.944Z,45.56
2018-07-22T09:42:21.969Z,48.23
2018-07-22T09:44:48.012Z,46.58
2018-07-22T09:47:14.013Z,46.10
2018-07-22T09:49:40.063Z,46.34
2018-07-22T09:52:06.101Z,43.99
2018-07-22T09:54:32.149Z,44.13
2018-07-22T09:56:58.432Z,42.54
2018-07-22T09:59:24.454Z,42.45
2018-07-22T10:01:50.460Z,42.57
2018-07-22T10:04:16.815Z,42.24
2018-07-22T10:06:42.832Z,43.23
2018-07-22T10:09:08.940Z,42.03
2018-07-22T10:11:35.625Z,42.85
2018-07-22T10:14:06.995Z,42.92
2018-07-22T10:16:33.530Z,41.51
2018-07-22T10:18:59.805Z,41.47
2018-07-22T10:21:27.101Z,39.43
2018-07-22T10:23:53.188Z,40.31
2018-07-22T10:26:19.206Z,40.47
2018-07-22T10:28:45.427Z,41.30
2018-07-22T10:31:11.916Z,39.51
2018-07-22T10:33:37.966Z,39.71
2018-07-22T10:36:04.060Z,40.71
2018-07-22T10:38:30.275Z,39.21
2018-07-22T10:40:56.297Z,38.66
2018-07-22T10:43:26.773Z,40.43
2018-07-22T11:25:02.789Z,31.93
2018-07-22T11:27:28.968Z,34.67
2018-07-22T11:29:55.256Z,34.81
2018-07-22T11:32:21.288Z,33.47
2018-07-22T11:34:47.586Z,33.17
2018-07-22T11:37:13.868Z,32.87
2018-07-22T11:42:11.972Z,32.34
2018-07-22T11:47:53.265Z,30.95
2018-07-22T11:58:10.469Z,35.55
2018-07-22T12:00:36.695Z,36.49
2018-07-22T12:03:02.761Z,34.28
2018-07-22T12:18:12.515Z,26.74
2018-07-22T12:20:38.936Z,25.64
2018-07-22T12:23:05.231Z,25.59
2018-07-22T13:35:27.289Z,14.89
2018-07-22T13:37:53.620Z,16.71
2018-07-22T13:40:19.686Z,17.74
2018-07-22T13:42:45.834Z,18.71
2018-07-22T13:45:11.918Z,20.21
2018-07-22T13:47:40.362Z,21.42
2018-07-22T13:50:06.404Z,23.42
2018-07-22T13:52:32.480Z,22.67
2018-07-22T13:54:58.487Z,21.97
2018-07-22T13:57:24.600Z,21.77
2018-07-22T13:59:50.747Z,20.87
2018-07-22T14:02:16.828Z,21.37
2018-07-22T14:04:43.072Z,19.94
2018-07-22T14:07:09.358Z,18.57
2018-07-22T14:09:35.476Z,17.89
2018-07-22T14:12:01.600Z,18.14
2018-07-22T14:14:27.594Z,18.47
2018-07-22T14:16:53.640Z,18.31
2018-07-22T14:19:19.758Z,21.40
2018-07-22T14:21:45.835Z,24.18
2018-07-22T14:24:12.209Z,26.59
2018-07-22T14:26:39.307Z,28.39
2018-07-22T14:29:05.358Z,30.39
2018-07-22T14:31:31.420Z,32.42
2018-07-22T14:33:57.477Z,33.47
2018-07-22T14:36:23.538Z,35.42
2018-07-22T14:38:49.975Z,36.45
2018-07-22T14:41:16.076Z,35.53
2018-07-22T14:43:42.107Z,37.62
2018-07-22T14:46:08.558Z,37.80
2018-07-22T14:48:34.884Z,38.99
2018-07-22T14:51:01.020Z,39.33
2018-07-22T14:53:27.065Z,38.59
2018-07-22T14:55:53.358Z,39.38
2018-07-22T14:58:19.486Z,39.25
2018-07-22T15:00:45.538Z,38.52
2018-07-22T15:03:11.663Z,39.23
2018-07-22T15:05:37.734Z,40.78
2018-07-22T15:08:04.114Z,41.60
2018-07-22T15:10:30.174Z,39.64
2018-07-22T15:12:56.218Z,39.56
2018-07-22T15:15:22.237Z,41.56
2018-07-22T15:17:48.372Z,38.49
2018-07-22T15:20:14.445Z,39.83
2018-07-22T15:22:40.467Z,37.68
2018-07-22T15:25:06.912Z,35.63
2018-07-22T15:27:32.952Z,34.40
2018-07-22T15:29:59.004Z,33.36
2018-07-22T15:32:25.108Z,33.85
2018-07-22T15:34:51.160Z,34.01
2018-07-22T15:37:17.224Z,33.16
2018-07-22T15:39:43.234Z,34.71
2018-07-22T15:42:09.296Z,35.27
2018-07-22T15:44:35.299Z,35.50
2018-07-22T15:47:01.337Z,35.95
2018-07-22T15:49:27.370Z,35.83
2018-07-22T15:51:53.423Z,35.75
2018-07-22T15:54:19.709Z,35.09
2018-07-22T15:56:45.746Z,34.67
2018-07-22T15:59:11.789Z,37.00
2018-07-22T16:01:37.851Z,35.36
2018-07-22T16:04:04.223Z,35.72
2018-07-22T16:06:30.292Z,36.62
2018-07-22T16:08:56.319Z,35.01
2018-07-22T16:11:22.348Z,34.02
2018-07-22T16:13:48.366Z,34.87
2018-07-22T16:16:14.386Z,34.18
2018-07-22T16:18:40.709Z,36.06
2018-07-22T16:21:10.160Z,37.78
2018-07-22T16:23:36.213Z,35.33
2018-07-22T16:26:02.272Z,35.72
2018-07-22T16:28:28.323Z,36.39
2018-07-22T16:30:54.744Z,36.77
2018-07-22T16:33:20.772Z,35.12
2018-07-22T16:35:46.816Z,34.55
2018-07-22T16:38:12.849Z,34.50
2018-07-22T16:40:39.248Z,36.90
2018-07-22T16:43:05.272Z,34.78
2018-07-22T16:45:31.293Z,34.83
2018-07-22T16:47:57.344Z,33.65
2018-07-22T16:50:23.445Z,30.42
2018-07-22T16:52:49.558Z,28.18
2018-07-22T16:55:15.618Z,27.91
2018-07-22T16:57:42.322Z,28.98
2018-07-22T17:00:08.345Z,28.94
2018-07-22T17:02:34.440Z,29.69
2018-07-22T17:05:00.491Z,30.28
2018-07-22T17:07:26.547Z,29.92
2018-07-22T17:09:52.589Z,31.18
2018-07-22T17:12:18.603Z,30.95
2018-07-22T17:14:44.975Z,33.36
2018-07-22T17:17:11.299Z,35.28
2018-07-22T17:19:37.330Z,35.75
2018-07-22T17:22:03.386Z,34.56
2018-07-22T17:24:29.422Z,38.27
2018-07-22T17:26:55.459Z,40.30
2018-07-22T17:29:21.475Z,40.64
2018-07-22T17:31:47.837Z,41.17
2018-07-22T17:34:14.206Z,41.57
2018-07-22T17:36:40.240Z,42.23
2018-07-22T17:39:06.279Z,43.36
2018-07-22T17:41:32.300Z,44.57
2018-07-22T17:43:58.338Z,43.17
2018-07-22T17:46:24.732Z,44.15
2018-07-22T17:48:50.782Z,44.51
2018-07-22T17:51:17.051Z,46.86
2018-07-22T17:53:43.118Z,47.00
2018-07-22T17:56:09.154Z,48.92
2018-07-22T17:58:35.185Z,47.45
2018-07-22T18:01:01.260Z,49.79
2018-07-22T18:03:27.573Z,48.14
2018-07-22T18:05:53.623Z,51.87
2018-07-22T18:08:19.869Z,53.38
2018-07-22T18:10:45.921Z,51.70
2018-07-22T18:13:11.959Z,53.43
2018-07-22T18:15:37.998Z,53.09
2018-07-22T18:18:04.044Z,52.53
2018-07-22T18:20:30.088Z,55.35
2018-07-22T18:22:56.113Z,54.55
2018-07-22T18:25:22.111Z,54.30
2018-07-22T18:27:48.169Z,54.72
2018-07-22T18:30:14.183Z,52.37
2018-07-22T18:32:40.201Z,51.95
2018-07-22T18:35:06.196Z,52.72
2018-07-22T18:37:32.530Z,51.21
2018-07-22T18:39:58.539Z,51.77
2018-07-22T18:42:24.633Z,51.37
2018-07-22T18:44:50.626Z,51.73
2018-07-22T18:47:16.667Z,51.39
2018-07-22T18:49:42.774Z,51.30
2018-07-22T18:52:09.047Z,51.30
2018-07-22T18:54:35.068Z,51.36
2018-07-22T18:57:01.095Z,52.67
2018-07-22T18:59:27.123Z,52.77
2018-07-22T19:01:53.118Z,53.31
2018-07-22T19:04:19.145Z,53.46
2018-07-22T19:06:46.201Z,53.25
2018-07-22T19:09:12.547Z,53.21
2018-07-22T19:11:38.556Z,55.65
2018-07-22T19:14:04.543Z,56.20
2018-07-22T19:16:30.579Z,58.75
2018-07-22T19:18:56.601Z,58.43
2018-07-22T19:21:22.617Z,57.84
2018-07-22T19:23:48.630Z,57.66
2018-07-22T19:26:14.697Z,57.48
2018-07-22T19:28:41.045Z,58.02
2018-07-22T19:31:07.087Z,57.33
2018-07-22T19:33:33.409Z,58.25
2018-07-22T19:35:59.423Z,58.48
2018-07-22T19:38:25.484Z,59.42
2018-07-22T19:40:51.530Z,60.86
2018-07-22T19:43:17.943Z,60.22
2018-07-22T19:46:52.499Z,60.15
2018-07-22T19:49:18.579Z,59.86
2018-07-22T19:51:44.761Z,60.34
2018-07-22T19:54:10.837Z,59.49
2018-07-22T19:56:36.875Z,58.70
2018-07-22T20:01:20.743Z,59.91
2018-07-22T20:04:21.073Z,61.45
2018-07-22T20:06:47.171Z,61.32
2018-07-22T20:09:13.185Z,60.88
2018-07-22T20:11:39.495Z,61.95
2018-07-22T20:14:05.730Z,63.04
2018-07-22T20:17:44.067Z,60.68
2018-07-22T20:20:10.102Z,60.81
2018-07-22T20:22:36.519Z,61.74
2018-07-22T20:25:02.555Z,64.40
2018-07-22T20:27:28.597Z,62.39
2018-07-22T20:29:54.845Z,64.83
2018-07-22T20:33:22.690Z,61.92
2018-07-22T20:35:48.702Z,61.99
2018-07-22T20:38:14.750Z,63.79
2018-07-22T20:40:40.756Z,65.27
2018-07-22T20:43:07.128Z,65.13
2018-07-22T20:45:33.129Z,64.92
2018-07-22T20:47:59.147Z,64.83
2018-07-22T20:52:22.669Z,64.82
2018-07-22T20:56:01.283Z,65.15
2018-07-22T20:58:27.647Z,67.83
2018-07-22T21:00:53.699Z,67.50
2018-07-22T21:03:19.747Z,66.80
2018-07-22T21:05:45.806Z,67.40
2018-07-22T21:08:11.932Z,66.50
2018-07-22T21:10:37.945Z,69.27
2018-07-22T21:13:03.960Z,68.86
2018-07-22T21:15:29.988Z,67.17
2018-07-22T21:17:56.032Z,68.44
2018-07-22T21:20:22.031Z,68.11
2018-07-22T21:22:48.075Z,67.86
2018-07-22T21:25:14.072Z,66.72
2018-07-22T21:27:40.111Z,68.59
2018-07-22T21:30:06.164Z,66.53
2018-07-22T21:32:32.170Z,66.06
2018-07-22T21:34:58.212Z,65.50
2018-07-22T21:37:24.230Z,64.67
2018-07-22T21:39:50.508Z,65.44
2018-07-22T21:42:16.543Z,63.40
2018-07-22T21:44:42.590Z,63.53
2018-07-22T21:47:08.623Z,64.46
2018-07-22T21:49:34.697Z,65.25
2018-07-22T21:52:00.736Z,64.48
2018-07-22T21:54:26.755Z,65.14
2018-07-22T21:59:27.379Z,63.89
2018-07-22T22:01:53.409Z,64.00
2018-07-22T22:04:19.426Z,66.09
2018-07-22T22:06:46.560Z,65.15
2018-07-22T22:09:12.600Z,65.15
2018-07-22T22:11:38.628Z,66.06
2018-07-22T22:14:04.634Z,64.88
2018-07-22T22:16:30.660Z,66.83
2018-07-22T22:18:56.699Z,68.19
2018-07-22T22:21:22.694Z,66.46
2018-07-22T22:23:48.714Z,66.69
2018-07-22T22:26:15.092Z,66.60
2018-07-22T22:28:41.095Z,66.23
2018-07-22T22:31:07.119Z,68.48
2018-07-22T22:33:33.135Z,67.60
2018-07-22T22:35:59.220Z,68.00
2018-07-22T22:38:25.320Z,67.68
2018-07-22T22:40:51.283Z,67.65
2018-07-22T22:43:17.310Z,68.50
2018-07-22T22:45:43.350Z,69.71
2018-07-22T22:48:09.460Z,70.70
2018-07-22T22:50:35.500Z,71.23
2018-07-22T22:53:01.524Z,69.01
2018-07-22T22:55:27.602Z,71.69
2018-07-22T22:57:53.631Z,71.36
2018-07-22T23:00:19.689Z,70.94
2018-07-22T23:02:46.055Z,72.23
2018-07-22T23:05:12.053Z,70.59
2018-07-22T23:07:38.388Z,72.15
2018-07-22T23:10:04.433Z,71.47
2018-07-22T23:12:30.474Z,72.32
2018-07-22T23:14:56.511Z,71.08
2018-07-22T23:17:22.543Z,72.23
2018-07-22T23:19:48.559Z,71.21
2018-07-22T23:22:14.569Z,72.36
2018-07-22T23:24:40.582Z,74.06
2018-07-22T23:27:06.602Z,74.79
2018-07-22T23:29:32.672Z,73.78
2018-07-22T23:31:58.694Z,73.04
2018-07-22T23:34:24.711Z,73.36
2018-07-22T23:36:50.865Z,73.68
2018-07-22T23:39:16.934Z,74.66
2018-07-22T23:41:42.966Z,72.52
2018-07-22T23:44:09.001Z,73.71
2018-07-22T23:46:35.000Z,73.50
2018-07-22T23:49:00.996Z,73.94
2018-07-22T23:51:27.025Z,74.25
2018-07-22T23:53:53.038Z,75.10
2018-07-22T23:56:19.074Z,74.34
2018-07-22T23:58:45.092Z,76.48
